Time;durP1;ratioP1;P1;durP2;ratioP2;P2;SDS_P1;SDS_P2;PMS_P1;PMS_P2;Temp;Humidity;BMP_temperature;BMP_pressure;BME280_temperature;BME280_humidity;BME280_pressure;Samples;Min_cycle;Max_cycle;Signal;HPM_P1;HPM_P2
2021/07/17 00:01:43;;;;;;;22.02;15.88;;;;;;;;;;5071309;28;20028;-47
2021/07/17 00:04:09;;;;;;;26.90;15.02;;;;;;;;;;5071535;28;20029;-48
2021/07/17 00:06:35;;;;;;;21.75;14.50;;;;;;;;;;5071441;28;20029;-48
2021/07/17 00:09:01;;;;;;;22.58;14.35;;;;;;;;;;5070895;28;20385;-48
2021/07/17 00:11:28;;;;;;;16.98;13.68;;;;;;;;;;5081474;28;20028;-50
2021/07/17 00:13:54;;;;;;;20.85;14.45;;;;;;;;;;5072695;28;20133;-52
2021/07/17 00:16:26;;;;;;;18.48;13.32;;;;;;;;;;5074943;28;20051;-48
2021/07/17 00:18:52;;;;;;;19.90;12.52;;;;;;;;;;5074707;28;20028;-48
2021/07/17 00:21:18;;;;;;;18.85;12.98;;;;;;;;;;5074842;28;20028;-49
2021/07/17 00:23:44;;;;;;;18.63;13.45;;;;;;;;;;5073461;28;20033;-50
2021/07/17 00:26:10;;;;;;;14.23;12.23;;;;;;;;;;5074693;28;20025;-51
2021/07/17 00:28:36;;;;;;;16.17;10.93;;;;;;;;;;5071413;28;20056;-48
2021/07/17 00:31:02;;;;;;;15.10;11.88;;;;;;;;;;5074389;28;20449;-47
2021/07/17 00:33:28;;;;;;;18.77;11.90;;;;;;;;;;5074395;28;20412;-47
2021/07/17 00:35:54;;;;;;;16.08;11.32;;;;;;;;;;5069343;28;20057;-47
2021/07/17 00:38:20;;;;;;;15.60;11.23;;;;;;;;;;5073780;28;20383;-49
2021/07/17 00:40:46;;;;;;;16.88;11.27;;;;;;;;;;5068038;28;20138;-48
2021/07/17 00:43:12;;;;;;;16.48;11.40;;;;;;;;;;5074454;28;20020;-47
2021/07/17 00:45:38;;;;;;;15.15;10.27;;;;;;;;;;5074036;28;20171;-47
2021/07/17 00:48:04;;;;;;;18.95;10.73;;;;;;;;;;5074036;28;20087;-52
2021/07/17 00:50:30;;;;;;;20.42;10.63;;;;;;;;;;5074410;28;20107;-48
2021/07/17 00:52:56;;;;;;;14.68;9.93;;;;;;;;;;5074306;28;20108;-48
2021/07/17 00:55:25;;;;;;;24.23;11.27;;;;;;;;;;5074009;28;20063;-48
2021/07/17 00:57:52;;;;;;;13.45;9.60;;;;;;;;;;5073954;28;20029;-48
2021/07/17 01:00:21;;;;;;;17.40;11.35;;;;;;;;;;5074574;28;20104;-51
2021/07/17 01:02:48;;;;;;;13.60;9.98;;;;;;;;;;5073243;28;20099;-51
2021/07/17 01:05:16;;;;;;;20.90;12.60;;;;;;;;;;5074215;28;20035;-52
2021/07/17 01:07:46;;;;;;;16.48;11.13;;;;;;;;;;5073946;28;20475;-50
2021/07/17 01:10:13;;;;;;;25.45;12.15;;;;;;;;;;5053678;28;20099;-51
2021/07/17 01:12:39;;;;;;;17.40;10.73;;;;;;;;;;5061110;28;20028;-52
2021/07/17 01:15:05;;;;;;;14.07;10.05;;;;;;;;;;5053601;28;20025;-51
2021/07/17 01:17:32;;;;;;;16.63;10.95;;;;;;;;;;5053495;28;20048;-49
2021/07/17 01:19:58;;;;;;;14.10;9.55;;;;;;;;;;5053255;28;20096;-49
2021/07/17 01:22:24;;;;;;;12.45;9.32;;;;;;;;;;5051182;28;20027;-50
2021/07/17 01:24:50;;;;;;;17.90;10.32;;;;;;;;;;5053434;28;20400;-52
2021/07/17 01:27:17;;;;;;;15.07;10.43;;;;;;;;;;5053717;28;20035;-54
2021/07/17 01:29:43;;;;;;;18.80;9.10;;;;;;;;;;5049428;28;20547;-50
2021/07/17 01:32:09;;;;;;;16.92;9.73;;;;;;;;;;5053475;28;20029;-54
2021/07/17 01:34:35;;;;;;;14.43;9.07;;;;;;;;;;5053299;28;20021;-51
2021/07/17 01:37:01;;;;;;;14.65;8.77;;;;;;;;;;5047603;28;20024;-52
2021/07/17 01:39:27;;;;;;;21.10;9.43;;;;;;;;;;5045741;28;20407;-49
2021/07/17 01:41:53;;;;;;;14.20;8.90;;;;;;;;;;5053252;28;20099;-51
2021/07/17 01:44:19;;;;;;;17.48;9.68;;;;;;;;;;5053265;28;20040;-49
2021/07/17 01:46:46;;;;;;;15.75;8.88;;;;;;;;;;5053117;28;20051;-50
2021/07/17 01:49:12;;;;;;;12.90;9.07;;;;;;;;;;5052796;28;20036;-52
2021/07/17 01:51:38;;;;;;;14.30;8.43;;;;;;;;;;5053114;28;20057;-52
2021/07/17 01:54:04;;;;;;;20.73;9.57;;;;;;;;;;5052825;28;20025;-50
2021/07/17 01:56:30;;;;;;;15.82;8.85;;;;;;;;;;5053242;28;20107;-51
2021/07/17 01:58:56;;;;;;;15.50;9.60;;;;;;;;;;5052617;28;20100;-49
2021/07/17 02:01:27;;;;;;;14.43;8.63;;;;;;;;;;5052745;28;20366;-54
2021/07/17 02:03:54;;;;;;;19.00;9.43;;;;;;;;;;5052749;28;20029;-55
2021/07/17 02:06:24;;;;;;;17.33;9.00;;;;;;;;;;5052720;28;20025;-50
2021/07/17 02:08:50;;;;;;;15.07;8.55;;;;;;;;;;5061331;28;20052;-52
2021/07/17 02:11:16;;;;;;;19.75;8.68;;;;;;;;;;5080736;28;20028;-53
2021/07/17 02:13:42;;;;;;;12.38;8.02;;;;;;;;;;5072285;28;20066;-51
2021/07/17 02:16:08;;;;;;;15.10;8.73;;;;;;;;;;5071087;28;20028;-50
2021/07/17 02:18:35;;;;;;;20.77;9.13;;;;;;;;;;5072226;28;20024;-55
2021/07/17 02:21:05;;;;;;;12.50;8.43;;;;;;;;;;5072322;28;20021;-51
2021/07/17 02:23:31;;;;;;;12.82;7.90;;;;;;;;;;5071313;28;20063;-51
2021/07/17 02:25:57;;;;;;;14.48;7.70;;;;;;;;;;5072636;28;20056;-51
2021/07/17 02:28:23;;;;;;;15.77;8.07;;;;;;;;;;5072071;28;20036;-52
2021/07/17 02:30:50;;;;;;;19.73;9.55;;;;;;;;;;5071611;28;20451;-49
2021/07/17 02:33:16;;;;;;;12.45;8.50;;;;;;;;;;5071613;28;20032;-53
2021/07/17 02:35:43;;;;;;;16.40;8.65;;;;;;;;;;5068419;28;20039;-50
2021/07/17 02:38:09;;;;;;;13.55;7.85;;;;;;;;;;5070555;28;20036;-50
2021/07/17 02:40:35;;;;;;;13.43;8.77;;;;;;;;;;5065386;28;20021;-56
2021/07/17 02:43:01;;;;;;;14.05;8.23;;;;;;;;;;5072306;28;20133;-54
2021/07/17 02:45:27;;;;;;;14.05;8.85;;;;;;;;;;5072318;28;20176;-52
2021/07/17 02:47:53;;;;;;;15.52;8.43;;;;;;;;;;5071402;28;20039;-54
2021/07/17 02:50:19;;;;;;;20.20;8.63;;;;;;;;;;5072250;28;20052;-54
2021/07/17 02:52:45;;;;;;;17.10;9.23;;;;;;;;;;5072197;28;20104;-56
2021/07/17 02:55:11;;;;;;;24.92;8.55;;;;;;;;;;5072007;28;20024;-50
2021/07/17 02:57:37;;;;;;;17.67;8.63;;;;;;;;;;5069947;28;20020;-52
2021/07/17 03:00:05;;;;;;;17.15;8.43;;;;;;;;;;5072220;28;20384;-49
2021/07/17 03:02:31;;;;;;;17.75;8.75;;;;;;;;;;5071540;28;20108;-49
2021/07/17 03:04:57;;;;;;;19.20;8.75;;;;;;;;;;5072054;28;20361;-50
2021/07/17 03:07:23;;;;;;;15.07;8.52;;;;;;;;;;5072000;28;20155;-49
2021/07/17 03:09:49;;;;;;;11.65;7.80;;;;;;;;;;5071565;28;20048;-49
2021/07/17 03:12:15;;;;;;;18.70;8.65;;;;;;;;;;5078855;28;20453;-50
2021/07/17 03:14:41;;;;;;;10.38;7.18;;;;;;;;;;5071698;28;20029;-55
2021/07/17 03:17:07;;;;;;;16.25;9.20;;;;;;;;;;5070720;28;20037;-53
2021/07/17 03:19:33;;;;;;;16.77;8.65;;;;;;;;;;5071651;28;20104;-55
2021/07/17 03:21:59;;;;;;;22.98;9.55;;;;;;;;;;5070198;28;20032;-56
2021/07/17 03:24:25;;;;;;;13.65;7.85;;;;;;;;;;5071904;28;20025;-52
2021/07/17 03:26:51;;;;;;;19.63;9.43;;;;;;;;;;5071720;28;20425;-52
2021/07/17 03:29:17;;;;;;;25.85;8.68;;;;;;;;;;5071548;28;20060;-55
2021/07/17 03:31:44;;;;;;;14.13;8.25;;;;;;;;;;5070622;28;20051;-51
2021/07/17 03:34:10;;;;;;;15.27;8.98;;;;;;;;;;5072002;28;20103;-50
2021/07/17 03:36:35;;;;;;;17.88;9.00;;;;;;;;;;5063735;28;20028;-51
2021/07/17 03:39:01;;;;;;;17.25;8.45;;;;;;;;;;5065132;28;20029;-49
2021/07/17 03:41:27;;;;;;;13.20;7.28;;;;;;;;;;5071627;28;20103;-49
2021/07/17 03:43:53;;;;;;;18.60;8.43;;;;;;;;;;5071660;28;20016;-51
2021/07/17 03:46:19;;;;;;;13.98;8.05;;;;;;;;;;5073187;28;20028;-49
2021/07/17 03:48:46;;;;;;;24.45;9.00;;;;;;;;;;5075117;28;20029;-53
2021/07/17 03:51:12;;;;;;;16.63;8.88;;;;;;;;;;5075342;28;20515;-56
2021/07/17 03:53:38;;;;;;;17.45;8.77;;;;;;;;;;5075423;28;20831;-56
2021/07/17 03:56:04;;;;;;;17.70;8.88;;;;;;;;;;5075262;28;20027;-51
2021/07/17 03:58:30;;;;;;;20.90;8.15;;;;;;;;;;5072263;28;20364;-51
2021/07/17 04:00:56;;;;;;;21.58;9.05;;;;;;;;;;5074960;28;20111;-52
2021/07/17 04:03:23;;;;;;;21.77;8.30;;;;;;;;;;5074064;28;20020;-51
2021/07/17 04:05:49;;;;;;;13.75;8.85;;;;;;;;;;5075103;28;20024;-52
2021/07/17 04:08:15;;;;;;;19.73;8.70;;;;;;;;;;5074687;28;20049;-52
2021/07/17 04:10:41;;;;;;;16.95;7.60;;;;;;;;;;5077970;28;20464;-50
2021/07/17 04:13:07;;;;;;;21.55;8.25;;;;;;;;;;5077219;28;20028;-50
2021/07/17 04:15:33;;;;;;;22.25;9.07;;;;;;;;;;5072224;28;20028;-49
2021/07/17 04:17:59;;;;;;;30.05;9.98;;;;;;;;;;5073570;28;20100;-52
2021/07/17 04:20:25;;;;;;;23.38;8.93;;;;;;;;;;5074880;28;20697;-51
2021/07/17 04:22:52;;;;;;;18.58;8.80;;;;;;;;;;5073106;28;20026;-50
2021/07/17 04:25:18;;;;;;;14.40;7.47;;;;;;;;;;5074748;28;20037;-55
2021/07/17 04:27:44;;;;;;;22.98;8.95;;;;;;;;;;5074297;28;20114;-52
2021/07/17 04:30:10;;;;;;;25.10;9.27;;;;;;;;;;5074486;28;20040;-49
2021/07/17 04:32:36;;;;;;;17.80;8.32;;;;;;;;;;5074411;28;20528;-53
2021/07/17 04:35:04;;;;;;;22.30;8.93;;;;;;;;;;5074660;28;20029;-56
2021/07/17 04:37:30;;;;;;;16.13;8.57;;;;;;;;;;5069174;28;20028;-53
2021/07/17 04:39:56;;;;;;;20.90;8.95;;;;;;;;;;5067369;28;20070;-50
2021/07/17 04:42:22;;;;;;;23.17;9.57;;;;;;;;;;5073747;28;20408;-53
2021/07/17 04:44:48;;;;;;;21.23;8.70;;;;;;;;;;5074240;28;20449;-51
2021/07/17 04:47:14;;;;;;;20.90;9.18;;;;;;;;;;5074199;28;20071;-53
2021/07/17 04:49:40;;;;;;;21.88;9.48;;;;;;;;;;5073699;28;20028;-51
2021/07/17 04:52:06;;;;;;;22.77;8.20;;;;;;;;;;5074496;28;20064;-51
2021/07/17 04:54:32;;;;;;;17.88;8.73;;;;;;;;;;5074210;28;20060;-50
2021/07/17 04:56:58;;;;;;;19.30;8.23;;;;;;;;;;5074662;28;20070;-51
2021/07/17 04:59:24;;;;;;;19.42;9.13;;;;;;;;;;5071707;28;20070;-50
2021/07/17 05:01:50;;;;;;;18.30;8.85;;;;;;;;;;5073912;28;20056;-55
2021/07/17 05:04:16;;;;;;;19.92;9.55;;;;;;;;;;5073952;28;20059;-51
2021/07/17 05:06:42;;;;;;;20.20;8.88;;;;;;;;;;5074002;28;20036;-53
2021/07/17 05:09:08;;;;;;;16.13;8.27;;;;;;;;;;5073377;28;20045;-50
2021/07/17 05:11:34;;;;;;;19.63;9.85;;;;;;;;;;5080318;28;20825;-53
2021/07/17 05:14:00;;;;;;;21.27;9.23;;;;;;;;;;5072373;28;20111;-51
2021/07/17 05:16:27;;;;;;;23.60;9.48;;;;;;;;;;5074094;28;20537;-49
2021/07/17 05:18:52;;;;;;;16.23;8.25;;;;;;;;;;5073283;28;20021;-50
2021/07/17 05:21:18;;;;;;;19.13;9.02;;;;;;;;;;5073855;28;20021;-50
2021/07/17 05:23:45;;;;;;;20.17;8.93;;;;;;;;;;5072330;28;20051;-50
2021/07/17 05:26:11;;;;;;;15.45;9.20;;;;;;;;;;5072191;28;20029;-49
2021/07/17 05:28:37;;;;;;;30.38;10.02;;;;;;;;;;5073266;28;20032;-51
2021/07/17 05:31:04;;;;;;;20.30;8.43;;;;;;;;;;5072584;28;20099;-51
2021/07/17 05:33:30;;;;;;;24.20;9.50;;;;;;;;;;5073301;28;20024;-50
2021/07/17 05:35:56;;;;;;;18.63;9.02;;;;;;;;;;5068211;28;20028;-54
2021/07/17 05:38:22;;;;;;;18.23;8.70;;;;;;;;;;5072335;28;20059;-55
2021/07/17 05:40:48;;;;;;;16.58;8.95;;;;;;;;;;5079825;28;20413;-53
2021/07/17 05:43:14;;;;;;;22.40;10.50;;;;;;;;;;5073375;28;20029;-50
2021/07/17 05:45:40;;;;;;;20.55;10.15;;;;;;;;;;5073068;28;20029;-53
2021/07/17 05:48:06;;;;;;;17.02;9.13;;;;;;;;;;5072605;28;20372;-55
2021/07/17 05:50:32;;;;;;;19.63;9.27;;;;;;;;;;5073183;28;20534;-50
2021/07/17 05:52:58;;;;;;;16.15;8.35;;;;;;;;;;5073282;28;20028;-52
2021/07/17 05:55:24;;;;;;;22.50;10.98;;;;;;;;;;5073087;28;20464;-50
2021/07/17 05:57:50;;;;;;;19.05;9.35;;;;;;;;;;5072170;28;20029;-51
2021/07/17 06:00:19;;;;;;;20.75;9.45;;;;;;;;;;5073106;28;20105;-50
2021/07/17 06:02:45;;;;;;;21.77;12.57;;;;;;;;;;5071755;28;20027;-50
2021/07/17 06:05:11;;;;;;;20.25;10.85;;;;;;;;;;5072787;28;20111;-50
2021/07/17 06:07:37;;;;;;;20.48;10.85;;;;;;;;;;5072328;28;20052;-49
2021/07/17 06:10:04;;;;;;;15.57;9.57;;;;;;;;;;5071852;28;20135;-50
2021/07/17 06:12:30;;;;;;;15.05;8.98;;;;;;;;;;5079000;28;20059;-55
2021/07/17 06:14:56;;;;;;;21.02;10.13;;;;;;;;;;5072568;28;20052;-55
2021/07/17 06:17:22;;;;;;;15.80;9.77;;;;;;;;;;5070334;28;20025;-55
2021/07/17 06:19:48;;;;;;;20.00;10.27;;;;;;;;;;5072313;28;20020;-56
2021/07/17 06:22:14;;;;;;;17.70;11.82;;;;;;;;;;5070839;28;20468;-54
2021/07/17 06:24:41;;;;;;;17.30;11.02;;;;;;;;;;5072309;28;20455;-49
2021/07/17 06:27:07;;;;;;;19.30;12.18;;;;;;;;;;5072437;28;20032;-53
2021/07/17 06:29:33;;;;;;;22.02;11.57;;;;;;;;;;5071442;28;20051;-50
2021/07/17 06:31:59;;;;;;;21.05;9.88;;;;;;;;;;5072114;28;20055;-50
2021/07/17 06:34:25;;;;;;;16.92;10.60;;;;;;;;;;5072251;28;20021;-51
2021/07/17 06:36:51;;;;;;;18.83;9.98;;;;;;;;;;5067056;28;20031;-52
2021/07/17 06:39:17;;;;;;;17.83;10.13;;;;;;;;;;5064986;28;20111;-52
2021/07/17 06:41:44;;;;;;;19.80;12.30;;;;;;;;;;5072540;28;20021;-51
2021/07/17 06:44:10;;;;;;;18.92;11.07;;;;;;;;;;5072242;28;20103;-51
2021/07/17 06:46:36;;;;;;;17.85;11.10;;;;;;;;;;5061068;28;20054;-52
2021/07/17 06:49:02;;;;;;;19.10;11.65;;;;;;;;;;5071730;28;20028;-55
2021/07/17 06:51:28;;;;;;;18.85;11.70;;;;;;;;;;5072154;28;20400;-55
2021/07/17 06:53:54;;;;;;;22.30;13.65;;;;;;;;;;5071868;28;20031;-51
2021/07/17 06:56:21;;;;;;;19.00;11.93;;;;;;;;;;5072035;28;20021;-49
2021/07/17 06:58:47;;;;;;;20.08;13.18;;;;;;;;;;5071320;28;20548;-55
2021/07/17 07:01:13;;;;;;;20.77;11.48;;;;;;;;;;5071114;28;20044;-55
2021/07/17 07:03:39;;;;;;;15.23;11.25;;;;;;;;;;5071853;28;20040;-51
2021/07/17 07:06:05;;;;;;;18.73;11.50;;;;;;;;;;5071929;28;20033;-52
2021/07/17 07:08:32;;;;;;;16.55;12.23;;;;;;;;;;5071189;28;20048;-51
2021/07/17 07:10:58;;;;;;;20.70;10.30;;;;;;;;;;5077043;28;20032;-53
2021/07/17 07:13:23;;;;;;;18.30;11.10;;;;;;;;;;5070572;28;20066;-50
2021/07/17 07:15:49;;;;;;;14.85;10.45;;;;;;;;;;5071988;28;20056;-50
2021/07/17 07:18:15;;;;;;;15.20;10.02;;;;;;;;;;5071689;28;20032;-50
2021/07/17 07:20:42;;;;;;;15.70;11.20;;;;;;;;;;5072929;28;20508;-49
2021/07/17 07:23:08;;;;;;;16.63;11.07;;;;;;;;;;5074424;28;20029;-56
2021/07/17 07:25:34;;;;;;;15.80;10.68;;;;;;;;;;5076056;28;20029;-50
2021/07/17 07:28:00;;;;;;;18.30;11.85;;;;;;;;;;5075368;28;20025;-52
2021/07/17 07:30:26;;;;;;;16.63;12.07;;;;;;;;;;5074947;28;20035;-54
2021/07/17 07:32:52;;;;;;;17.17;11.52;;;;;;;;;;5075443;28;20036;-51
2021/07/17 07:35:22;;;;;;;23.88;11.88;;;;;;;;;;5074864;28;20033;-54
2021/07/17 07:37:50;;;;;;;18.23;11.52;;;;;;;;;;5070171;28;20170;-49
2021/07/17 07:40:16;;;;;;;20.85;13.02;;;;;;;;;;5069317;28;20065;-56
2021/07/17 07:42:42;;;;;;;15.75;10.90;;;;;;;;;;5075639;28;20059;-49
2021/07/17 07:45:08;;;;;;;17.33;11.73;;;;;;;;;;5075631;28;20040;-49
2021/07/17 07:47:34;;;;;;;18.98;12.18;;;;;;;;;;5074414;28;20070;-52
2021/07/17 07:50:00;;;;;;;15.88;11.13;;;;;;;;;;5075445;28;20348;-51
2021/07/17 07:52:26;;;;;;;16.88;11.63;;;;;;;;;;5075260;28;20033;-49
2021/07/17 07:54:52;;;;;;;17.25;12.18;;;;;;;;;;5075310;28;20024;-50
2021/07/17 07:57:19;;;;;;;17.13;11.35;;;;;;;;;;5074450;28;20053;-52
2021/07/17 07:59:45;;;;;;;16.23;10.98;;;;;;;;;;5075023;28;20484;-55
2021/07/17 08:02:11;;;;;;;17.38;12.32;;;;;;;;;;5074209;28;20027;-55
2021/07/17 08:04:37;;;;;;;17.13;12.48;;;;;;;;;;5074779;28;20058;-55
2021/07/17 08:07:04;;;;;;;17.38;11.60;;;;;;;;;;5074913;28;20103;-53
2021/07/17 08:09:30;;;;;;;15.10;10.88;;;;;;;;;;5074656;28;20407;-56
2021/07/17 08:11:55;;;;;;;18.95;11.85;;;;;;;;;;5080766;28;20036;-49
2021/07/17 08:14:21;;;;;;;18.35;11.35;;;;;;;;;;5074938;28;20036;-51
2021/07/17 08:16:48;;;;;;;16.50;10.93;;;;;;;;;;5074854;28;20013;-50
2021/07/17 08:19:15;;;;;;;16.10;12.13;;;;;;;;;;5074114;28;20056;-51
2021/07/17 08:21:41;;;;;;;13.90;11.40;;;;;;;;;;5073227;28;20041;-52
2021/07/17 08:24:08;;;;;;;16.52;11.32;;;;;;;;;;5074911;28;20454;-51
2021/07/17 08:26:34;;;;;;;16.80;11.93;;;;;;;;;;5074918;28;20082;-51
2021/07/17 08:29:00;;;;;;;19.27;12.15;;;;;;;;;;5074462;28;20031;-52
2021/07/17 08:31:26;;;;;;;16.02;11.93;;;;;;;;;;5073132;28;20028;-51
2021/07/17 08:33:52;;;;;;;17.35;12.65;;;;;;;;;;5074389;28;20151;-50
2021/07/17 08:36:18;;;;;;;17.73;12.57;;;;;;;;;;5069880;28;20466;-54
2021/07/17 08:38:45;;;;;;;18.23;12.68;;;;;;;;;;5070677;28;20025;-55
2021/07/17 08:41:11;;;;;;;15.27;12.40;;;;;;;;;;5071844;28;20024;-56
2021/07/17 08:43:38;;;;;;;18.42;12.27;;;;;;;;;;5073203;28;20048;-50
2021/07/17 08:46:04;;;;;;;18.05;12.13;;;;;;;;;;5074045;28;20046;-54
2021/07/17 08:48:30;;;;;;;15.77;11.98;;;;;;;;;;5073883;28;20107;-54
2021/07/17 08:50:58;;;;;;;17.02;11.82;;;;;;;;;;5074197;28;20021;-51
2021/07/17 08:53:24;;;;;;;22.27;12.63;;;;;;;;;;5074583;28;20099;-50
2021/07/17 08:55:50;;;;;;;16.02;12.30;;;;;;;;;;5074057;28;20117;-50
2021/07/17 08:58:16;;;;;;;19.95;12.63;;;;;;;;;;5073318;28;20380;-50
2021/07/17 09:00:44;;;;;;;16.83;11.73;;;;;;;;;;5073332;28;20033;-54
2021/07/17 09:03:11;;;;;;;20.98;12.02;;;;;;;;;;5074111;28;20021;-50
2021/07/17 09:05:45;;;;;;;21.38;12.85;;;;;;;;;;5074183;28;20031;-53
2021/07/17 09:08:11;;;;;;;16.35;12.18;;;;;;;;;;5073504;28;20052;-51
2021/07/17 09:10:44;;;;;;;16.73;11.55;;;;;;;;;;5075001;28;20020;-50
2021/07/17 09:13:12;;;;;;;17.75;13.00;;;;;;;;;;5077232;28;20032;-50
2021/07/17 09:15:38;;;;;;;15.73;11.68;;;;;;;;;;5072788;28;20520;-55
2021/07/17 09:18:06;;;;;;;18.48;12.75;;;;;;;;;;5073252;28;20016;-55
2021/07/17 09:20:32;;;;;;;16.55;12.00;;;;;;;;;;5073802;28;20020;-52
2021/07/17 09:22:59;;;;;;;21.17;13.23;;;;;;;;;;5072285;28;20103;-53
2021/07/17 09:25:33;;;;;;;21.33;12.20;;;;;;;;;;5073766;28;20033;-55
2021/07/17 09:28:15;;;;;;;18.35;12.07;;;;;;;;;;5073278;28;20028;-54
2021/07/17 09:30:41;;;;;;;16.02;12.15;;;;;;;;;;5064218;28;20042;-54
2021/07/17 09:33:07;;;;;;;16.25;12.25;;;;;;;;;;5072570;28;20024;-51
2021/07/17 09:35:35;;;;;;;17.67;13.15;;;;;;;;;;5070889;28;20067;-50
2021/07/17 09:38:02;;;;;;;16.92;12.00;;;;;;;;;;5070377;28;20059;-53
2021/07/17 09:40:41;;;;;;;14.75;11.27;;;;;;;;;;5066186;28;20453;-51
2021/07/17 09:43:07;;;;;;;17.95;11.82;;;;;;;;;;5072546;28;20024;-55
2021/07/17 09:45:34;;;;;;;16.38;12.73;;;;;;;;;;5073364;28;20376;-52
2021/07/17 09:48:00;;;;;;;18.60;12.82;;;;;;;;;;5071944;28;20529;-50
2021/07/17 09:50:32;;;;;;;16.15;12.30;;;;;;;;;;5073194;28;20024;-50
2021/07/17 09:52:59;;;;;;;15.63;12.27;;;;;;;;;;5072038;28;20025;-53
2021/07/17 09:55:25;;;;;;;19.33;12.57;;;;;;;;;;5072914;28;20024;-49
2021/07/17 09:57:51;;;;;;;19.08;11.82;;;;;;;;;;5072032;28;20017;-53
2021/07/17 10:00:24;;;;;;;16.30;13.07;;;;;;;;;;5072092;28;20043;-49
2021/07/17 10:02:50;;;;;;;16.73;11.52;;;;;;;;;;5072990;28;20418;-53
2021/07/17 10:05:18;;;;;;;18.95;11.73;;;;;;;;;;5072887;28;20048;-56
2021/07/17 10:07:44;;;;;;;19.00;12.93;;;;;;;;;;5072661;28;20426;-55
2021/07/17 10:10:10;;;;;;;19.15;12.93;;;;;;;;;;5072638;28;20067;-53
2021/07/17 10:12:40;;;;;;;14.88;11.77;;;;;;;;;;5079349;28;20046;-51
2021/07/17 10:15:10;;;;;;;19.45;12.30;;;;;;;;;;5070735;28;20404;-50
2021/07/17 10:17:37;;;;;;;14.73;11.88;;;;;;;;;;5065847;28;20100;-55
2021/07/17 10:20:07;;;;;;;16.98;12.55;;;;;;;;;;5068507;28;20044;-52
2021/07/17 10:22:34;;;;;;;20.23;12.00;;;;;;;;;;5070819;28;20032;-51
2021/07/17 10:25:00;;;;;;;17.02;12.52;;;;;;;;;;5072447;28;20029;-56
2021/07/17 10:27:26;;;;;;;14.38;10.82;;;;;;;;;;5072525;28;20033;-50
2021/07/17 10:29:52;;;;;;;16.63;10.90;;;;;;;;;;5071869;28;20036;-52
2021/07/17 10:32:18;;;;;;;14.93;11.07;;;;;;;;;;5071407;28;20056;-55
2021/07/17 10:34:45;;;;;;;16.90;11.00;;;;;;;;;;5072232;28;20359;-50
2021/07/17 10:37:15;;;;;;;13.93;10.23;;;;;;;;;;5067133;28;20448;-51
2021/07/17 10:39:43;;;;;;;15.13;10.68;;;;;;;;;;5065198;28;20047;-53
2021/07/17 10:42:28;;;;;;;16.10;11.15;;;;;;;;;;5072133;28;20060;-50
2021/07/17 10:44:54;;;;;;;12.07;10.20;;;;;;;;;;5070131;28;20027;-50
2021/07/17 10:47:21;;;;;;;16.95;10.57;;;;;;;;;;5071966;28;20499;-50
2021/07/17 10:49:48;;;;;;;13.73;10.55;;;;;;;;;;5071923;28;20051;-54
2021/07/17 10:52:14;;;;;;;13.57;10.15;;;;;;;;;;5072270;28;20024;-55
2021/07/17 10:54:40;;;;;;;14.70;10.63;;;;;;;;;;5071754;28;20103;-54
2021/07/17 10:57:07;;;;;;;12.38;9.40;;;;;;;;;;5068162;28;20031;-54
2021/07/17 10:59:33;;;;;;;13.15;9.52;;;;;;;;;;5071087;28;20029;-50
2021/07/17 11:02:02;;;;;;;14.63;8.75;;;;;;;;;;5071761;28;20046;-49
2021/07/17 11:04:34;;;;;;;13.25;8.65;;;;;;;;;;5072273;28;20035;-54
2021/07/17 11:07:19;;;;;;;14.02;9.57;;;;;;;;;;5072053;28;20036;-50
2021/07/17 11:09:50;;;;;;;12.80;9.73;;;;;;;;;;5071594;28;20037;-56
2021/07/17 11:12:26;;;;;;;13.70;9.32;;;;;;;;;;5074846;28;20017;-52
2021/07/17 11:14:53;;;;;;;11.15;8.77;;;;;;;;;;5071778;28;20657;-54
2021/07/17 11:17:37;;;;;;;12.18;9.10;;;;;;;;;;5071705;28;20141;-49
2021/07/17 11:20:16;;;;;;;14.07;8.68;;;;;;;;;;5071801;28;20411;-54
2021/07/17 11:22:43;;;;;;;12.57;9.57;;;;;;;;;;5070718;28;20059;-51
2021/07/17 11:25:09;;;;;;;11.73;8.35;;;;;;;;;;5071810;28;20393;-49
2021/07/17 11:27:41;;;;;;;11.57;8.02;;;;;;;;;;5071638;28;20029;-50
2021/07/17 11:30:18;;;;;;;11.18;8.63;;;;;;;;;;5070826;28;20147;-51
2021/07/17 11:33:03;;;;;;;11.40;8.02;;;;;;;;;;5071512;28;20055;-50
2021/07/17 11:35:29;;;;;;;12.40;7.90;;;;;;;;;;5069846;28;20489;-53
2021/07/17 11:37:55;;;;;;;10.85;7.93;;;;;;;;;;5067957;28;20424;-50
2021/07/17 11:40:21;;;;;;;10.00;7.90;;;;;;;;;;5065044;28;20082;-50
2021/07/17 11:42:47;;;;;;;11.38;8.55;;;;;;;;;;5071670;28;20430;-50
2021/07/17 11:45:13;;;;;;;10.65;7.90;;;;;;;;;;5071735;28;20480;-50
2021/07/17 11:47:39;;;;;;;10.85;8.35;;;;;;;;;;5071102;28;20496;-52
2021/07/17 11:50:06;;;;;;;12.93;8.43;;;;;;;;;;5071850;28;20040;-51
2021/07/17 11:52:33;;;;;;;11.45;8.15;;;;;;;;;;5071747;28;20082;-54
2021/07/17 11:55:04;;;;;;;10.48;7.95;;;;;;;;;;5071479;28;20372;-55
2021/07/17 11:57:32;;;;;;;10.45;7.55;;;;;;;;;;5070572;28;20029;-53
2021/07/17 11:59:59;;;;;;;11.10;7.60;;;;;;;;;;5071595;28;20403;-52
2021/07/17 12:02:27;;;;;;;10.30;8.15;;;;;;;;;;5071127;28;20024;-55
2021/07/17 12:04:54;;;;;;;13.27;8.98;;;;;;;;;;5071655;28;20024;-51
2021/07/17 12:07:21;;;;;;;9.73;7.90;;;;;;;;;;5073444;28;20052;-51
2021/07/17 12:09:47;;;;;;;9.98;7.30;;;;;;;;;;5074588;28;20048;-52
2021/07/17 12:12:19;;;;;;;10.25;7.75;;;;;;;;;;5079920;28;20077;-54
2021/07/17 12:14:46;;;;;;;12.20;8.90;;;;;;;;;;5074461;28;20052;-53
2021/07/17 12:17:19;;;;;;;11.25;8.85;;;;;;;;;;5074716;28;20334;-52
2021/07/17 12:19:46;;;;;;;9.93;8.88;;;;;;;;;;5074765;28;20024;-50
2021/07/17 12:22:12;;;;;;;12.27;8.32;;;;;;;;;;5072902;28;20524;-52
2021/07/17 12:24:38;;;;;;;13.27;9.32;;;;;;;;;;5074789;28;20029;-49
2021/07/17 12:27:04;;;;;;;11.27;8.13;;;;;;;;;;5074895;28;20079;-52
2021/07/17 12:29:35;;;;;;;11.65;8.82;;;;;;;;;;5074621;28;20056;-49
2021/07/17 12:32:02;;;;;;;10.82;8.35;;;;;;;;;;5074841;28;20032;-49
2021/07/17 12:34:28;;;;;;;10.90;8.20;;;;;;;;;;5074705;28;20024;-49
2021/07/17 12:36:54;;;;;;;11.77;8.85;;;;;;;;;;5069158;28;20025;-50
2021/07/17 12:39:21;;;;;;;13.43;8.93;;;;;;;;;;5067164;28;20025;-52
2021/07/17 12:41:49;;;;;;;11.43;8.25;;;;;;;;;;5074532;28;20021;-50
2021/07/17 12:44:15;;;;;;;9.00;8.10;;;;;;;;;;5074423;28;20464;-50
2021/07/17 12:46:48;;;;;;;11.55;8.70;;;;;;;;;;5074426;28;20021;-52
2021/07/17 12:49:14;;;;;;;9.32;7.63;;;;;;;;;;5073853;28;20037;-51
2021/07/17 12:51:41;;;;;;;12.73;8.23;;;;;;;;;;5076009;28;20396;-51
2021/07/17 12:54:11;;;;;;;11.48;8.10;;;;;;;;;;5074345;28;20116;-50
2021/07/17 12:56:44;;;;;;;12.95;9.02;;;;;;;;;;5074486;28;20030;-49
2021/07/17 12:59:13;;;;;;;12.88;7.70;;;;;;;;;;5070525;28;20044;-55
2021/07/17 13:01:43;;;;;;;10.93;8.48;;;;;;;;;;5073838;28;20032;-54
2021/07/17 13:04:11;;;;;;;9.95;7.85;;;;;;;;;;5074371;28;20085;-52
2021/07/17 13:06:37;;;;;;;9.30;7.72;;;;;;;;;;5074365;28;20460;-50
2021/07/17 13:09:04;;;;;;;13.50;8.05;;;;;;;;;;5072032;28;20072;-52
2021/07/17 13:11:30;;;;;;;12.95;7.38;;;;;;;;;;5083373;28;20062;-52
2021/07/17 13:13:57;;;;;;;10.73;6.65;;;;;;;;;;5072253;28;20029;-51
2021/07/17 13:16:27;;;;;;;10.75;6.88;;;;;;;;;;5073567;28;20236;-50
2021/07/17 13:18:53;;;;;;;10.38;6.25;;;;;;;;;;5073250;28;20031;-53
2021/07/17 13:21:19;;;;;;;7.38;6.00;;;;;;;;;;5073960;28;20512;-56
2021/07/17 13:23:49;;;;;;;7.60;6.32;;;;;;;;;;5072990;28;20083;-53
2021/07/17 13:26:19;;;;;;;13.60;7.40;;;;;;;;;;5073701;28;20028;-53
2021/07/17 13:28:46;;;;;;;8.80;5.85;;;;;;;;;;5073231;28;20027;-53
2021/07/17 13:31:20;;;;;;;8.38;5.30;;;;;;;;;;5072567;28;20109;-53
2021/07/17 13:33:46;;;;;;;7.82;5.75;;;;;;;;;;5073536;28;20024;-52
2021/07/17 13:36:12;;;;;;;5.53;4.60;;;;;;;;;;5068480;28;20021;-54
2021/07/17 13:38:38;;;;;;;8.00;5.60;;;;;;;;;;5070360;28;20044;-52
2021/07/17 13:41:08;;;;;;;5.47;4.88;;;;;;;;;;5070017;28;20104;-51
2021/07/17 13:43:34;;;;;;;8.95;4.55;;;;;;;;;;5072869;28;20555;-55
2021/07/17 13:46:01;;;;;;;7.18;4.22;;;;;;;;;;5073041;28;20036;-55
2021/07/17 13:48:27;;;;;;;7.38;4.43;;;;;;;;;;5072825;28;20060;-51
2021/07/17 13:51:03;;;;;;;4.35;3.90;;;;;;;;;;5073199;28;20067;-52
2021/07/17 13:53:28;;;;;;;5.47;4.10;;;;;;;;;;5073095;28;20033;-55
2021/07/17 13:56:04;;;;;;;5.68;4.50;;;;;;;;;;5072687;28;20031;-52
2021/07/17 13:58:30;;;;;;;7.13;5.28;;;;;;;;;;5071823;28;20127;-56
2021/07/17 14:00:56;;;;;;;7.25;5.15;;;;;;;;;;5072689;28;20748;-51
2021/07/17 14:03:24;;;;;;;5.50;4.88;;;;;;;;;;5072221;28;20109;-52
2021/07/17 14:05:51;;;;;;;6.55;4.35;;;;;;;;;;5073032;28;20067;-55
2021/07/17 14:08:17;;;;;;;8.32;5.25;;;;;;;;;;5072074;28;20124;-51
2021/07/17 14:10:43;;;;;;;5.18;4.40;;;;;;;;;;5075839;28;20043;-50
2021/07/17 14:13:11;;;;;;;6.68;5.05;;;;;;;;;;5075196;28;20028;-53
2021/07/17 14:15:38;;;;;;;7.07;4.68;;;;;;;;;;5072720;28;20029;-55
2021/07/17 14:18:04;;;;;;;7.47;5.20;;;;;;;;;;5072179;28;20048;-54
2021/07/17 14:20:31;;;;;;;7.03;4.97;;;;;;;;;;5072518;28;20028;-51
2021/07/17 14:22:57;;;;;;;6.68;4.60;;;;;;;;;;5070132;28;20020;-51
2021/07/17 14:25:23;;;;;;;6.38;4.60;;;;;;;;;;5072675;28;20111;-52